sensor_id;sensor_type;location;lat;lon;timestamp;P1;durP1;ratioP1;P2;durP2;ratioP2
70899;SDS011;67902;52.154;5.430;2023-04-15T00:01:35;13.82;;;5.13;;
70899;SDS011;67902;52.154;5.430;2023-04-15T00:04:02;12.30;;;5.70;;
70899;SDS011;67902;52.154;5.430;2023-04-15T00:06:29;12.57;;;5.20;;
70899;SDS011;67902;52.154;5.430;2023-04-15T00:08:56;13.27;;;5.45;;
70899;SDS011;67902;52.154;5.430;2023-04-15T00:11:22;13.23;;;5.57;;
70899;SDS011;67902;52.154;5.430;2023-04-15T00:13:49;13.02;;;5.80;;
70899;SDS011;67902;52.154;5.430;2023-04-15T00:16:16;13.88;;;5.88;;
70899;SDS011;67902;52.154;5.430;2023-04-15T00:18:42;11.88;;;5.45;;
70899;SDS011;67902;52.154;5.430;2023-04-15T00:21:09;12.70;;;5.22;;
70899;SDS011;67902;52.154;5.430;2023-04-15T00:23:35;14.00;;;5.57;;
70899;SDS011;67902;52.154;5.430;2023-04-15T00:26:02;14.25;;;5.53;;
70899;SDS011;67902;52.154;5.430;2023-04-15T00:28:28;14.20;;;5.82;;
70899;SDS011;67902;52.154;5.430;2023-04-15T00:30:56;12.38;;;5.20;;
70899;SDS011;67902;52.154;5.430;2023-04-15T00:33:22;13.35;;;5.63;;
70899;SDS011;67902;52.154;5.430;2023-04-15T00:35:49;16.17;;;6.03;;
70899;SDS011;67902;52.154;5.430;2023-04-15T00:38:16;12.00;;;5.20;;
70899;SDS011;67902;52.154;5.430;2023-04-15T00:40:42;11.75;;;5.40;;
70899;SDS011;67902;52.154;5.430;2023-04-15T00:43:09;13.32;;;5.00;;
70899;SDS011;67902;52.154;5.430;2023-04-15T00:45:35;14.93;;;6.00;;
70899;SDS011;67902;52.154;5.430;2023-04-15T00:48:02;11.73;;;5.15;;
70899;SDS011;67902;52.154;5.430;2023-04-15T00:50:30;11.73;;;5.65;;
70899;SDS011;67902;52.154;5.430;2023-04-15T00:52:56;12.07;;;5.55;;
70899;SDS011;67902;52.154;5.430;2023-04-15T00:55:22;14.60;;;5.65;;
70899;SDS011;67902;52.154;5.430;2023-04-15T00:57:49;13.75;;;5.05;;
70899;SDS011;67902;52.154;5.430;2023-04-15T01:00:15;15.48;;;5.13;;
70899;SDS011;67902;52.154;5.430;2023-04-15T01:02:42;16.33;;;5.60;;
70899;SDS011;67902;52.154;5.430;2023-04-15T01:05:09;12.70;;;5.63;;
70899;SDS011;67902;52.154;5.430;2023-04-15T01:07:35;13.43;;;5.53;;
70899;SDS011;67902;52.154;5.430;2023-04-15T01:10:02;13.13;;;5.25;;
70899;SDS011;67902;52.154;5.430;2023-04-15T01:12:29;12.00;;;5.43;;
70899;SDS011;67902;52.154;5.430;2023-04-15T01:14:58;11.30;;;5.30;;
70899;SDS011;67902;52.154;5.430;2023-04-15T01:17:24;11.32;;;5.38;;
70899;SDS011;67902;52.154;5.430;2023-04-15T01:19:51;13.07;;;5.18;;
70899;SDS011;67902;52.154;5.430;2023-04-15T01:22:18;12.30;;;5.05;;
70899;SDS011;67902;52.154;5.430;2023-04-15T01:27:31;11.38;;;5.40;;
70899;SDS011;67902;52.154;5.430;2023-04-15T01:29:58;12.77;;;5.60;;
70899;SDS011;67902;52.154;5.430;2023-04-15T01:32:25;12.20;;;4.80;;
70899;SDS011;67902;52.154;5.430;2023-04-15T01:34:52;13.23;;;5.60;;
70899;SDS011;67902;52.154;5.430;2023-04-15T01:37:18;11.63;;;4.80;;
70899;SDS011;67902;52.154;5.430;2023-04-15T01:39:45;10.90;;;5.43;;
70899;SDS011;67902;52.154;5.430;2023-04-15T01:42:11;12.45;;;4.47;;
70899;SDS011;67902;52.154;5.430;2023-04-15T01:44:38;11.07;;;5.53;;
70899;SDS011;67902;52.154;5.430;2023-04-15T01:47:04;13.00;;;5.22;;
70899;SDS011;67902;52.154;5.430;2023-04-15T01:49:31;12.18;;;5.22;;
70899;SDS011;67902;52.154;5.430;2023-04-15T01:51:58;15.38;;;5.47;;
70899;SDS011;67902;52.154;5.430;2023-04-15T01:54:24;13.27;;;5.63;;
70899;SDS011;67902;52.154;5.430;2023-04-15T01:56:52;14.05;;;5.63;;
70899;SDS011;67902;52.154;5.430;2023-04-15T01:59:18;14.02;;;5.57;;
70899;SDS011;67902;52.154;5.430;2023-04-15T02:01:45;17.05;;;6.45;;
70899;SDS011;67902;52.154;5.430;2023-04-15T02:04:11;13.40;;;5.82;;
70899;SDS011;67902;52.154;5.430;2023-04-15T02:06:43;11.40;;;5.07;;
70899;SDS011;67902;52.154;5.430;2023-04-15T02:09:11;12.15;;;4.80;;
70899;SDS011;67902;52.154;5.430;2023-04-15T02:11:37;12.48;;;4.70;;
70899;SDS011;67902;52.154;5.430;2023-04-15T02:14:04;13.63;;;5.00;;
70899;SDS011;67902;52.154;5.430;2023-04-15T02:16:31;11.00;;;4.55;;
70899;SDS011;67902;52.154;5.430;2023-04-15T02:18:58;11.35;;;4.85;;
70899;SDS011;67902;52.154;5.430;2023-04-15T02:21:25;13.15;;;4.85;;
70899;SDS011;67902;52.154;5.430;2023-04-15T02:23:52;10.63;;;4.63;;
70899;SDS011;67902;52.154;5.430;2023-04-15T02:26:22;9.20;;;4.35;;
70899;SDS011;67902;52.154;5.430;2023-04-15T02:28:50;9.80;;;4.05;;
70899;SDS011;67902;52.154;5.430;2023-04-15T02:31:16;11.63;;;4.90;;
70899;SDS011;67902;52.154;5.430;2023-04-15T02:33:42;10.55;;;4.55;;
70899;SDS011;67902;52.154;5.430;2023-04-15T02:36:09;13.07;;;5.10;;
70899;SDS011;67902;52.154;5.430;2023-04-15T02:38:37;13.27;;;5.03;;
70899;SDS011;67902;52.154;5.430;2023-04-15T02:41:05;10.77;;;4.75;;
70899;SDS011;67902;52.154;5.430;2023-04-15T02:43:32;10.90;;;4.65;;
70899;SDS011;67902;52.154;5.430;2023-04-15T02:45:58;12.82;;;4.93;;
70899;SDS011;67902;52.154;5.430;2023-04-15T02:48:25;10.85;;;4.22;;
70899;SDS011;67902;52.154;5.430;2023-04-15T02:50:52;12.02;;;4.72;;
70899;SDS011;67902;52.154;5.430;2023-04-15T02:53:18;13.15;;;4.82;;
70899;SDS011;67902;52.154;5.430;2023-04-15T02:55:45;10.40;;;5.13;;
70899;SDS011;67902;52.154;5.430;2023-04-15T02:58:11;9.38;;;4.60;;
70899;SDS011;67902;52.154;5.430;2023-04-15T03:00:37;11.65;;;4.30;;
70899;SDS011;67902;52.154;5.430;2023-04-15T03:03:04;12.23;;;4.90;;
70899;SDS011;67902;52.154;5.430;2023-04-15T03:05:32;10.98;;;4.65;;
70899;SDS011;67902;52.154;5.430;2023-04-15T03:07:58;10.73;;;4.90;;
70899;SDS011;67902;52.154;5.430;2023-04-15T03:12:52;10.35;;;4.60;;
70899;SDS011;67902;52.154;5.430;2023-04-15T03:15:19;9.80;;;4.72;;
70899;SDS011;67902;52.154;5.430;2023-04-15T03:17:46;13.07;;;5.78;;
70899;SDS011;67902;52.154;5.430;2023-04-15T03:20:14;13.32;;;5.45;;
70899;SDS011;67902;52.154;5.430;2023-04-15T03:22:42;12.18;;;4.60;;
70899;SDS011;67902;52.154;5.430;2023-04-15T03:25:08;12.57;;;4.93;;
70899;SDS011;67902;52.154;5.430;2023-04-15T03:27:34;15.82;;;5.45;;
70899;SDS011;67902;52.154;5.430;2023-04-15T03:30:01;12.90;;;5.30;;
70899;SDS011;67902;52.154;5.430;2023-04-15T03:32:28;10.10;;;4.53;;
70899;SDS011;67902;52.154;5.430;2023-04-15T03:34:54;12.85;;;5.57;;
70899;SDS011;67902;52.154;5.430;2023-04-15T03:37:21;10.95;;;5.00;;
70899;SDS011;67902;52.154;5.430;2023-04-15T03:39:47;10.88;;;4.38;;
70899;SDS011;67902;52.154;5.430;2023-04-15T03:42:13;13.15;;;5.22;;
70899;SDS011;67902;52.154;5.430;2023-04-15T03:44:40;14.00;;;5.55;;
70899;SDS011;67902;52.154;5.430;2023-04-15T03:47:07;11.75;;;4.75;;
70899;SDS011;67902;52.154;5.430;2023-04-15T03:49:33;10.57;;;4.68;;
70899;SDS011;67902;52.154;5.430;2023-04-15T03:52:01;11.45;;;4.78;;
70899;SDS011;67902;52.154;5.430;2023-04-15T03:54:27;12.30;;;5.05;;
70899;SDS011;67902;52.154;5.430;2023-04-15T03:56:54;10.52;;;4.93;;
70899;SDS011;67902;52.154;5.430;2023-04-15T03:59:21;11.57;;;4.75;;
70899;SDS011;67902;52.154;5.430;2023-04-15T04:01:48;10.57;;;5.22;;
70899;SDS011;67902;52.154;5.430;2023-04-15T04:04:14;12.48;;;5.38;;
70899;SDS011;67902;52.154;5.430;2023-04-15T04:06:41;13.13;;;5.50;;
70899;SDS011;67902;52.154;5.430;2023-04-15T04:09:07;13.25;;;5.20;;
70899;SDS011;67902;52.154;5.430;2023-04-15T04:11:34;12.90;;;5.53;;
70899;SDS011;67902;52.154;5.430;2023-04-15T04:14:00;14.07;;;5.25;;
70899;SDS011;67902;52.154;5.430;2023-04-15T04:16:27;13.80;;;5.22;;
70899;SDS011;67902;52.154;5.430;2023-04-15T04:18:54;13.75;;;5.07;;
70899;SDS011;67902;52.154;5.430;2023-04-15T04:21:20;11.20;;;5.20;;
70899;SDS011;67902;52.154;5.430;2023-04-15T04:23:46;13.52;;;5.43;;
70899;SDS011;67902;52.154;5.430;2023-04-15T04:26:13;11.77;;;4.95;;
70899;SDS011;67902;52.154;5.430;2023-04-15T04:28:39;16.67;;;5.53;;
70899;SDS011;67902;52.154;5.430;2023-04-15T04:31:06;12.60;;;5.15;;
70899;SDS011;67902;52.154;5.430;2023-04-15T04:33:32;18.30;;;5.70;;
70899;SDS011;67902;52.154;5.430;2023-04-15T04:35:59;12.27;;;5.75;;
70899;SDS011;67902;52.154;5.430;2023-04-15T04:38:25;13.93;;;5.53;;
70899;SDS011;67902;52.154;5.430;2023-04-15T04:40:51;13.18;;;5.60;;
70899;SDS011;67902;52.154;5.430;2023-04-15T04:43:18;14.45;;;5.32;;
70899;SDS011;67902;52.154;5.430;2023-04-15T04:45:44;11.73;;;5.18;;
70899;SDS011;67902;52.154;5.430;2023-04-15T04:48:11;12.98;;;5.43;;
70899;SDS011;67902;52.154;5.430;2023-04-15T04:50:37;11.85;;;5.22;;
70899;SDS011;67902;52.154;5.430;2023-04-15T04:53:04;12.77;;;5.20;;
70899;SDS011;67902;52.154;5.430;2023-04-15T04:55:30;16.48;;;6.38;;
70899;SDS011;67902;52.154;5.430;2023-04-15T04:57:57;13.55;;;5.63;;
70899;SDS011;67902;52.154;5.430;2023-04-15T05:00:23;16.65;;;5.95;;
70899;SDS011;67902;52.154;5.430;2023-04-15T05:02:50;13.43;;;5.22;;
70899;SDS011;67902;52.154;5.430;2023-04-15T05:05:16;14.75;;;5.45;;
70899;SDS011;67902;52.154;5.430;2023-04-15T05:07:43;13.23;;;5.97;;
70899;SDS011;67902;52.154;5.430;2023-04-15T05:10:09;11.98;;;5.40;;
70899;SDS011;67902;52.154;5.430;2023-04-15T05:12:36;17.13;;;5.90;;
70899;SDS011;67902;52.154;5.430;2023-04-15T05:15:04;13.48;;;5.88;;
70899;SDS011;67902;52.154;5.430;2023-04-15T05:17:31;11.35;;;5.18;;
70899;SDS011;67902;52.154;5.430;2023-04-15T05:20:00;12.65;;;6.18;;
70899;SDS011;67902;52.154;5.430;2023-04-15T05:22:28;13.25;;;5.85;;
70899;SDS011;67902;52.154;5.430;2023-04-15T05:24:54;16.23;;;6.45;;
70899;SDS011;67902;52.154;5.430;2023-04-15T05:27:21;13.85;;;5.55;;
70899;SDS011;67902;52.154;5.430;2023-04-15T05:32:15;12.88;;;5.72;;
70899;SDS011;67902;52.154;5.430;2023-04-15T05:34:42;13.95;;;5.65;;
70899;SDS011;67902;52.154;5.430;2023-04-15T05:37:08;15.82;;;5.63;;
70899;SDS011;67902;52.154;5.430;2023-04-15T05:39:35;14.32;;;5.57;;
70899;SDS011;67902;52.154;5.430;2023-04-15T05:42:01;12.25;;;5.43;;
70899;SDS011;67902;52.154;5.430;2023-04-15T05:44:28;12.95;;;5.70;;
70899;SDS011;67902;52.154;5.430;2023-04-15T05:46:55;12.55;;;5.25;;
70899;SDS011;67902;52.154;5.430;2023-04-15T05:49:21;12.60;;;5.60;;
70899;SDS011;67902;52.154;5.430;2023-04-15T05:51:48;16.17;;;5.78;;
70899;SDS011;67902;52.154;5.430;2023-04-15T05:54:14;12.85;;;5.88;;
70899;SDS011;67902;52.154;5.430;2023-04-15T05:56:43;15.95;;;6.50;;
70899;SDS011;67902;52.154;5.430;2023-04-15T05:59:10;15.50;;;6.40;;
70899;SDS011;67902;52.154;5.430;2023-04-15T06:01:36;13.90;;;6.35;;
70899;SDS011;67902;52.154;5.430;2023-04-15T06:04:03;14.43;;;6.22;;
70899;SDS011;67902;52.154;5.430;2023-04-15T06:06:30;14.55;;;6.88;;
70899;SDS011;67902;52.154;5.430;2023-04-15T06:08:57;17.27;;;6.80;;
70899;SDS011;67902;52.154;5.430;2023-04-15T06:11:23;19.30;;;6.65;;
70899;SDS011;67902;52.154;5.430;2023-04-15T06:13:51;14.68;;;6.43;;
70899;SDS011;67902;52.154;5.430;2023-04-15T06:16:18;15.50;;;6.63;;
70899;SDS011;67902;52.154;5.430;2023-04-15T06:18:44;15.15;;;6.63;;
70899;SDS011;67902;52.154;5.430;2023-04-15T06:21:11;16.17;;;7.15;;
70899;SDS011;67902;52.154;5.430;2023-04-15T06:23:37;13.05;;;6.18;;
70899;SDS011;67902;52.154;5.430;2023-04-15T06:26:06;13.02;;;6.28;;
70899;SDS011;67902;52.154;5.430;2023-04-15T06:28:33;15.38;;;6.32;;
70899;SDS011;67902;52.154;5.430;2023-04-15T06:30:59;13.20;;;5.82;;
70899;SDS011;67902;52.154;5.430;2023-04-15T06:33:27;14.45;;;6.55;;
70899;SDS011;67902;52.154;5.430;2023-04-15T06:35:53;15.70;;;6.55;;
70899;SDS011;67902;52.154;5.430;2023-04-15T06:38:20;12.25;;;5.57;;
70899;SDS011;67902;52.154;5.430;2023-04-15T06:40:46;13.70;;;5.50;;
70899;SDS011;67902;52.154;5.430;2023-04-15T06:43:12;15.32;;;5.95;;
70899;SDS011;67902;52.154;5.430;2023-04-15T06:45:39;13.98;;;5.97;;
70899;SDS011;67902;52.154;5.430;2023-04-15T06:48:05;14.75;;;6.40;;
70899;SDS011;67902;52.154;5.430;2023-04-15T06:50:32;14.18;;;6.60;;
70899;SDS011;67902;52.154;5.430;2023-04-15T06:52:58;15.77;;;6.25;;
70899;SDS011;67902;52.154;5.430;2023-04-15T06:55:25;12.25;;;6.15;;
70899;SDS011;67902;52.154;5.430;2023-04-15T06:57:51;13.70;;;6.95;;
70899;SDS011;67902;52.154;5.430;2023-04-15T07:00:17;13.02;;;6.50;;
70899;SDS011;67902;52.154;5.430;2023-04-15T07:02:44;17.25;;;6.68;;
70899;SDS011;67902;52.154;5.430;2023-04-15T07:05:11;13.43;;;6.72;;
70899;SDS011;67902;52.154;5.430;2023-04-15T07:07:38;12.82;;;6.47;;
70899;SDS011;67902;52.154;5.430;2023-04-15T07:10:04;13.65;;;6.22;;
70899;SDS011;67902;52.154;5.430;2023-04-15T07:12:31;13.55;;;6.25;;
70899;SDS011;67902;52.154;5.430;2023-04-15T07:14:58;12.75;;;6.70;;
70899;SDS011;67902;52.154;5.430;2023-04-15T07:17:24;14.18;;;6.63;;
70899;SDS011;67902;52.154;5.430;2023-04-15T07:19:51;14.98;;;6.68;;
70899;SDS011;67902;52.154;5.430;2023-04-15T07:22:17;14.75;;;6.80;;
70899;SDS011;67902;52.154;5.430;2023-04-15T07:24:44;13.38;;;6.45;;
70899;SDS011;67902;52.154;5.430;2023-04-15T07:29:38;12.55;;;6.05;;
70899;SDS011;67902;52.154;5.430;2023-04-15T07:32:04;14.00;;;6.10;;
70899;SDS011;67902;52.154;5.430;2023-04-15T07:34:30;13.05;;;6.50;;
70899;SDS011;67902;52.154;5.430;2023-04-15T07:36:57;14.00;;;6.22;;
70899;SDS011;67902;52.154;5.430;2023-04-15T07:39:24;10.73;;;5.30;;
70899;SDS011;67902;52.154;5.430;2023-04-15T07:41:50;10.82;;;5.53;;
70899;SDS011;67902;52.154;5.430;2023-04-15T07:44:17;12.93;;;6.00;;
70899;SDS011;67902;52.154;5.430;2023-04-15T07:46:43;12.07;;;5.90;;
70899;SDS011;67902;52.154;5.430;2023-04-15T07:49:10;11.30;;;5.07;;
70899;SDS011;67902;52.154;5.430;2023-04-15T07:51:36;10.55;;;4.55;;
70899;SDS011;67902;52.154;5.430;2023-04-15T07:54:03;9.93;;;4.85;;
70899;SDS011;67902;52.154;5.430;2023-04-15T07:56:29;9.45;;;4.90;;
70899;SDS011;67902;52.154;5.430;2023-04-15T07:58:56;10.45;;;4.68;;
70899;SDS011;67902;52.154;5.430;2023-04-15T08:01:22;10.07;;;5.32;;
70899;SDS011;67902;52.154;5.430;2023-04-15T08:03:49;11.95;;;5.18;;
70899;SDS011;67902;52.154;5.430;2023-04-15T08:06:16;9.68;;;5.05;;
70899;SDS011;67902;52.154;5.430;2023-04-15T08:08:42;9.05;;;4.63;;
70899;SDS011;67902;52.154;5.430;2023-04-15T08:11:09;10.10;;;4.47;;
70899;SDS011;67902;52.154;5.430;2023-04-15T08:13:35;10.85;;;4.90;;
70899;SDS011;67902;52.154;5.430;2023-04-15T08:18:48;10.52;;;5.00;;
70899;SDS011;67902;52.154;5.430;2023-04-15T08:21:15;11.90;;;5.22;;
70899;SDS011;67902;52.154;5.430;2023-04-15T08:23:43;8.07;;;3.92;;
70899;SDS011;67902;52.154;5.430;2023-04-15T08:26:10;8.95;;;3.97;;
70899;SDS011;67902;52.154;5.430;2023-04-15T08:28:38;7.45;;;3.67;;
70899;SDS011;67902;52.154;5.430;2023-04-15T08:31:06;10.20;;;3.88;;
70899;SDS011;67902;52.154;5.430;2023-04-15T08:36:00;8.32;;;3.60;;
70899;SDS011;67902;52.154;5.430;2023-04-15T08:38:26;7.43;;;3.53;;
70899;SDS011;67902;52.154;5.430;2023-04-15T08:40:52;7.65;;;3.60;;
70899;SDS011;67902;52.154;5.430;2023-04-15T08:43:22;8.23;;;3.63;;
70899;SDS011;67902;52.154;5.430;2023-04-15T08:45:51;9.02;;;4.20;;
70899;SDS011;67902;52.154;5.430;2023-04-15T08:48:18;8.05;;;4.10;;
70899;SDS011;67902;52.154;5.430;2023-04-15T08:50:45;9.70;;;4.03;;
70899;SDS011;67902;52.154;5.430;2023-04-15T08:53:13;10.65;;;4.20;;
70899;SDS011;67902;52.154;5.430;2023-04-15T08:55:44;8.93;;;3.95;;
70899;SDS011;67902;52.154;5.430;2023-04-15T08:58:11;9.57;;;4.43;;
70899;SDS011;67902;52.154;5.430;2023-04-15T09:00:38;9.10;;;4.40;;
70899;SDS011;67902;52.154;5.430;2023-04-15T09:03:05;10.35;;;4.40;;
70899;SDS011;67902;52.154;5.430;2023-04-15T09:05:34;10.18;;;4.05;;
70899;SDS011;67902;52.154;5.430;2023-04-15T09:08:01;7.75;;;3.40;;
70899;SDS011;67902;52.154;5.430;2023-04-15T09:10:28;6.97;;;3.30;;
70899;SDS011;67902;52.154;5.430;2023-04-15T09:12:55;8.65;;;4.00;;
70899;SDS011;67902;52.154;5.430;2023-04-15T09:15:25;8.70;;;3.58;;
70899;SDS011;67902;52.154;5.430;2023-04-15T09:17:57;8.07;;;3.42;;
70899;SDS011;67902;52.154;5.430;2023-04-15T09:20:23;9.02;;;3.22;;
70899;SDS011;67902;52.154;5.430;2023-04-15T09:22:50;7.70;;;3.17;;
70899;SDS011;67902;52.154;5.430;2023-04-15T09:27:47;7.07;;;3.13;;
70899;SDS011;67902;52.154;5.430;2023-04-15T09:30:14;7.45;;;2.95;;
70899;SDS011;67902;52.154;5.430;2023-04-15T09:35:35;7.85;;;3.33;;
70899;SDS011;67902;52.154;5.430;2023-04-15T09:38:03;6.93;;;2.85;;
70899;SDS011;67902;52.154;5.430;2023-04-15T09:40:40;7.07;;;3.10;;
70899;SDS011;67902;52.154;5.430;2023-04-15T09:43:08;7.70;;;3.47;;
70899;SDS011;67902;52.154;5.430;2023-04-15T09:45:35;8.82;;;3.83;;
70899;SDS011;67902;52.154;5.430;2023-04-15T09:48:23;8.55;;;3.10;;
70899;SDS011;67902;52.154;5.430;2023-04-15T09:50:59;10.05;;;3.55;;
70899;SDS011;67902;52.154;5.430;2023-04-15T09:53:26;9.57;;;3.13;;
70899;SDS011;67902;52.154;5.430;2023-04-15T09:55:57;7.65;;;3.13;;
70899;SDS011;67902;52.154;5.430;2023-04-15T09:58:26;9.43;;;3.30;;
70899;SDS011;67902;52.154;5.430;2023-04-15T10:00:54;6.80;;;2.67;;
70899;SDS011;67902;52.154;5.430;2023-04-15T10:03:23;8.88;;;3.25;;
70899;SDS011;67902;52.154;5.430;2023-04-15T10:05:52;9.95;;;3.63;;
70899;SDS011;67902;52.154;5.430;2023-04-15T10:08:21;7.72;;;3.00;;
70899;SDS011;67902;52.154;5.430;2023-04-15T10:10:50;7.35;;;2.70;;
70899;SDS011;67902;52.154;5.430;2023-04-15T10:13:18;6.32;;;2.40;;
70899;SDS011;67902;52.154;5.430;2023-04-15T10:15:49;8.25;;;3.00;;
70899;SDS011;67902;52.154;5.430;2023-04-15T10:18:21;7.30;;;2.80;;
70899;SDS011;67902;52.154;5.430;2023-04-15T10:20:50;8.32;;;2.83;;
70899;SDS011;67902;52.154;5.430;2023-04-15T10:23:18;7.00;;;2.88;;
70899;SDS011;67902;52.154;5.430;2023-04-15T10:25:45;7.82;;;2.88;;
70899;SDS011;67902;52.154;5.430;2023-04-15T10:28:14;7.65;;;2.97;;
70899;SDS011;67902;52.154;5.430;2023-04-15T10:30:42;7.03;;;2.75;;
70899;SDS011;67902;52.154;5.430;2023-04-15T10:33:09;6.22;;;2.60;;
70899;SDS011;67902;52.154;5.430;2023-04-15T10:35:36;6.65;;;2.88;;
70899;SDS011;67902;52.154;5.430;2023-04-15T10:41:21;8.73;;;2.67;;
70899;SDS011;67902;52.154;5.430;2023-04-15T10:46:22;5.55;;;2.38;;
70899;SDS011;67902;52.154;5.430;2023-04-15T10:48:50;6.72;;;2.47;;
70899;SDS011;67902;52.154;5.430;2023-04-15T10:51:30;5.95;;;2.33;;
70899;SDS011;67902;52.154;5.430;2023-04-15T10:54:00;7.13;;;2.50;;
70899;SDS011;67902;52.154;5.430;2023-04-15T10:56:27;6.65;;;2.45;;
70899;SDS011;67902;52.154;5.430;2023-04-15T10:58:57;6.38;;;2.60;;
70899;SDS011;67902;52.154;5.430;2023-04-15T11:01:48;5.50;;;2.38;;
70899;SDS011;67902;52.154;5.430;2023-04-15T11:13:28;9.30;;;2.53;;
70899;SDS011;67902;52.154;5.430;2023-04-15T11:15:54;5.63;;;2.10;;
70899;SDS011;67902;52.154;5.430;2023-04-15T11:18:24;5.07;;;2.08;;
70899;SDS011;67902;52.154;5.430;2023-04-15T11:20:53;7.93;;;2.40;;
70899;SDS011;67902;52.154;5.430;2023-04-15T11:23:32;5.32;;;2.13;;
70899;SDS011;67902;52.154;5.430;2023-04-15T11:26:01;5.80;;;2.15;;
70899;SDS011;67902;52.154;5.430;2023-04-15T11:28:30;6.30;;;2.05;;
70899;SDS011;67902;52.154;5.430;2023-04-15T11:31:04;7.47;;;2.40;;
70899;SDS011;67902;52.154;5.430;2023-04-15T11:33:31;6.50;;;2.50;;
70899;SDS011;67902;52.154;5.430;2023-04-15T11:35:58;6.80;;;2.75;;
70899;SDS011;67902;52.154;5.430;2023-04-15T11:38:24;7.28;;;2.20;;
70899;SDS011;67902;52.154;5.430;2023-04-15T11:40:50;6.70;;;2.30;;
70899;SDS011;67902;52.154;5.430;2023-04-15T11:43:21;5.20;;;2.00;;
70899;SDS011;67902;52.154;5.430;2023-04-15T11:48:19;6.75;;;2.40;;
70899;SDS011;67902;52.154;5.430;2023-04-15T11:50:51;6.60;;;2.33;;
70899;SDS011;67902;52.154;5.430;2023-04-15T11:53:22;7.88;;;2.60;;
70899;SDS011;67902;52.154;5.430;2023-04-15T11:55:49;11.32;;;2.60;;
70899;SDS011;67902;52.154;5.430;2023-04-15T11:58:18;5.63;;;2.42;;
70899;SDS011;67902;52.154;5.430;2023-04-15T12:00:48;6.90;;;2.28;;
70899;SDS011;67902;52.154;5.430;2023-04-15T12:08:50;7.70;;;2.30;;
70899;SDS011;67902;52.154;5.430;2023-04-15T12:16:47;7.88;;;2.13;;
70899;SDS011;67902;52.154;5.430;2023-04-15T12:19:27;5.28;;;1.88;;
70899;SDS011;67902;52.154;5.430;2023-04-15T12:21:59;6.10;;;1.75;;
70899;SDS011;67902;52.154;5.430;2023-04-15T12:24:31;7.75;;;1.75;;
70899;SDS011;67902;52.154;5.430;2023-04-15T12:27:05;4.38;;;1.60;;
70899;SDS011;67902;52.154;5.430;2023-04-15T12:29:33;5.95;;;1.70;;
70899;SDS011;67902;52.154;5.430;2023-04-15T12:32:07;6.18;;;1.70;;
70899;SDS011;67902;52.154;5.430;2023-04-15T12:34:38;4.30;;;1.48;;
70899;SDS011;67902;52.154;5.430;2023-04-15T12:37:10;7.25;;;1.90;;
70899;SDS011;67902;52.154;5.430;2023-04-15T12:39:42;6.85;;;1.90;;
70899;SDS011;67902;52.154;5.430;2023-04-15T12:42:10;6.40;;;1.60;;
70899;SDS011;67902;52.154;5.430;2023-04-15T12:44:37;6.32;;;1.92;;
70899;SDS011;67902;52.154;5.430;2023-04-15T12:47:04;8.02;;;1.88;;
70899;SDS011;67902;52.154;5.430;2023-04-15T12:49:32;6.80;;;1.92;;
70899;SDS011;67902;52.154;5.430;2023-04-15T12:51:59;6.85;;;1.80;;
70899;SDS011;67902;52.154;5.430;2023-04-15T12:54:27;6.07;;;1.92;;
70899;SDS011;67902;52.154;5.430;2023-04-15T12:56:54;6.75;;;1.92;;
70899;SDS011;67902;52.154;5.430;2023-04-15T12:59:21;5.25;;;1.80;;
70899;SDS011;67902;52.154;5.430;2023-04-15T13:01:49;5.40;;;1.60;;
70899;SDS011;67902;52.154;5.430;2023-04-15T13:04:17;5.07;;;1.48;;
70899;SDS011;67902;52.154;5.430;2023-04-15T13:06:45;6.35;;;1.65;;
70899;SDS011;67902;52.154;5.430;2023-04-15T13:09:11;5.03;;;1.65;;
70899;SDS011;67902;52.154;5.430;2023-04-15T13:11:38;6.35;;;1.73;;
70899;SDS011;67902;52.154;5.430;2023-04-15T13:14:05;6.95;;;1.90;;
70899;SDS011;67902;52.154;5.430;2023-04-15T13:16:33;5.53;;;1.90;;
70899;SDS011;67902;52.154;5.430;2023-04-15T13:19:01;8.13;;;2.10;;
70899;SDS011;67902;52.154;5.430;2023-04-15T13:21:28;5.53;;;1.90;;
70899;SDS011;67902;52.154;5.430;2023-04-15T13:23:56;7.07;;;1.90;;
70899;SDS011;67902;52.154;5.430;2023-04-15T13:26:22;6.43;;;1.60;;
70899;SDS011;67902;52.154;5.430;2023-04-15T13:28:49;8.45;;;2.00;;
70899;SDS011;67902;52.154;5.430;2023-04-15T13:31:15;6.47;;;1.77;;
70899;SDS011;67902;52.154;5.430;2023-04-15T13:33:42;4.32;;;1.75;;
70899;SDS011;67902;52.154;5.430;2023-04-15T13:36:08;8.88;;;1.98;;
70899;SDS011;67902;52.154;5.430;2023-04-15T13:38:35;7.63;;;2.05;;
70899;SDS011;67902;52.154;5.430;2023-04-15T13:41:01;8.05;;;1.90;;
70899;SDS011;67902;52.154;5.430;2023-04-15T13:43:27;9.45;;;1.70;;
70899;SDS011;67902;52.154;5.430;2023-04-15T13:45:54;7.43;;;2.03;;
70899;SDS011;67902;52.154;5.430;2023-04-15T13:48:21;5.95;;;1.75;;
70899;SDS011;67902;52.154;5.430;2023-04-15T13:50:47;6.80;;;1.60;;
70899;SDS011;67902;52.154;5.430;2023-04-15T13:53:13;6.60;;;1.55;;
70899;SDS011;67902;52.154;5.430;2023-04-15T13:55:40;6.38;;;1.60;;
70899;SDS011;67902;52.154;5.430;2023-04-15T13:58:08;4.85;;;1.30;;
70899;SDS011;67902;52.154;5.430;2023-04-15T14:00:35;4.57;;;1.35;;
70899;SDS011;67902;52.154;5.430;2023-04-15T14:03:01;6.55;;;1.65;;
70899;SDS011;67902;52.154;5.430;2023-04-15T14:05:28;4.82;;;1.25;;
70899;SDS011;67902;52.154;5.430;2023-04-15T14:07:54;3.55;;;1.20;;
70899;SDS011;67902;52.154;5.430;2023-04-15T14:10:21;4.80;;;1.33;;
70899;SDS011;67902;52.154;5.430;2023-04-15T14:12:47;4.97;;;1.10;;
70899;SDS011;67902;52.154;5.430;2023-04-15T14:15:14;6.50;;;1.83;;
70899;SDS011;67902;52.154;5.430;2023-04-15T14:17:41;6.63;;;1.42;;
70899;SDS011;67902;52.154;5.430;2023-04-15T14:20:08;6.63;;;1.58;;
70899;SDS011;67902;52.154;5.430;2023-04-15T14:22:35;6.35;;;1.70;;
70899;SDS011;67902;52.154;5.430;2023-04-15T14:25:01;9.02;;;1.88;;
70899;SDS011;67902;52.154;5.430;2023-04-15T14:27:28;6.63;;;2.00;;
70899;SDS011;67902;52.154;5.430;2023-04-15T14:29:54;5.97;;;1.70;;
70899;SDS011;67902;52.154;5.430;2023-04-15T14:32:20;6.43;;;1.67;;
70899;SDS011;67902;52.154;5.430;2023-04-15T14:34:47;5.07;;;1.63;;
70899;SDS011;67902;52.154;5.430;2023-04-15T14:37:13;6.70;;;1.90;;
70899;SDS011;67902;52.154;5.430;2023-04-15T14:39:39;10.45;;;2.08;;
70899;SDS011;67902;52.154;5.430;2023-04-15T14:42:06;8.15;;;1.67;;
70899;SDS011;67902;52.154;5.430;2023-04-15T14:44:32;5.72;;;1.48;;
70899;SDS011;67902;52.154;5.430;2023-04-15T14:46:59;8.32;;;1.73;;
70899;SDS011;67902;52.154;5.430;2023-04-15T14:49:25;4.15;;;1.40;;
70899;SDS011;67902;52.154;5.430;2023-04-15T14:51:52;7.28;;;1.70;;
70899;SDS011;67902;52.154;5.430;2023-04-15T14:54:18;7.78;;;1.63;;
70899;SDS011;67902;52.154;5.430;2023-04-15T14:56:47;6.68;;;1.60;;
70899;SDS011;67902;52.154;5.430;2023-04-15T14:59:13;8.80;;;1.63;;
70899;SDS011;67902;52.154;5.430;2023-04-15T15:01:40;10.57;;;1.38;;
70899;SDS011;67902;52.154;5.430;2023-04-15T15:04:08;4.70;;;1.58;;
70899;SDS011;67902;52.154;5.430;2023-04-15T15:06:35;6.15;;;1.40;;
70899;SDS011;67902;52.154;5.430;2023-04-15T15:09:01;10.55;;;1.70;;
70899;SDS011;67902;52.154;5.430;2023-04-15T15:11:28;8.32;;;1.42;;
70899;SDS011;67902;52.154;5.430;2023-04-15T15:13:55;10.88;;;1.50;;
70899;SDS011;67902;52.154;5.430;2023-04-15T15:16:22;6.68;;;1.48;;
70899;SDS011;67902;52.154;5.430;2023-04-15T15:18:49;5.80;;;1.35;;
70899;SDS011;67902;52.154;5.430;2023-04-15T15:21:16;6.22;;;1.85;;
70899;SDS011;67902;52.154;5.430;2023-04-15T15:23:43;4.95;;;1.30;;
70899;SDS011;67902;52.154;5.430;2023-04-15T15:26:10;9.60;;;1.60;;
70899;SDS011;67902;52.154;5.430;2023-04-15T15:28:37;3.95;;;0.98;;
70899;SDS011;67902;52.154;5.430;2023-04-15T15:31:03;5.57;;;1.55;;